createdAt,value
2023-02-21T00:00:07.473Z,96895.13
2023-02-21T00:02:33.752Z,96900.03
2023-02-21T00:05:00.102Z,96909.69
2023-02-21T00:07:26.413Z,96900.59
2023-02-21T00:09:52.699Z,96911.69
2023-02-21T00:12:18.998Z,96900.81
2023-02-21T00:14:45.283Z,96896.47
2023-02-21T00:17:11.566Z,96894.50
2023-02-21T00:19:37.869Z,96890.38
2023-02-21T00:22:04.159Z,96886.34
2023-02-21T00:24:30.431Z,96892.00
2023-02-21T00:26:56.732Z,96884.78
2023-02-21T00:29:23.013Z,96885.78
2023-02-21T00:31:49.390Z,96879.53
2023-02-21T00:34:15.717Z,96876.66
2023-02-21T00:36:42.000Z,96882.06
2023-02-21T00:39:08.288Z,96872.72
2023-02-21T00:41:34.576Z,96868.34
2023-02-21T00:44:00.844Z,96869.09
2023-02-21T00:46:27.123Z,96861.94
2023-02-21T00:48:53.425Z,96858.66
2023-02-21T00:51:19.693Z,96870.31
2023-02-21T00:53:45.966Z,96878.44
2023-02-21T00:56:12.264Z,96878.06
2023-02-21T00:58:38.553Z,96876.50
2023-02-21T01:01:04.893Z,96870.56
2023-02-21T01:03:31.260Z,96870.19
2023-02-21T01:05:57.556Z,96868.19
2023-02-21T01:08:23.854Z,96857.47
2023-02-21T01:10:50.153Z,96851.06
2023-02-21T01:13:16.435Z,96857.81
2023-02-21T01:15:42.755Z,96857.34
2023-02-21T01:18:09.093Z,96862.44
2023-02-21T01:20:35.377Z,96860.88
2023-02-21T01:23:01.673Z,96856.72
2023-02-21T01:25:27.982Z,96861.47
2023-02-21T01:27:54.269Z,96863.00
2023-02-21T01:30:20.566Z,96863.06
2023-02-21T01:32:46.932Z,96855.53
2023-02-21T01:35:13.219Z,96851.94
2023-02-21T01:37:39.513Z,96861.03
2023-02-21T01:40:05.808Z,96845.88
2023-02-21T01:42:32.091Z,96844.25
2023-02-21T01:44:58.375Z,96843.13
2023-02-21T01:47:24.662Z,96842.00
2023-02-21T01:49:50.937Z,96841.19
2023-02-21T01:52:17.211Z,96839.91
2023-02-21T01:54:43.509Z,96839.94
2023-02-21T01:57:09.780Z,96835.91
2023-02-21T01:59:36.042Z,96839.59
2023-02-21T02:02:02.338Z,96842.44
2023-02-21T02:04:28.615Z,96828.94
2023-02-21T02:06:54.918Z,96842.03
2023-02-21T02:09:21.249Z,96826.16
2023-02-21T02:11:47.534Z,96822.94
2023-02-21T02:14:13.820Z,96822.53
2023-02-21T02:16:40.159Z,96819.81
2023-02-21T02:19:06.438Z,96825.41
2023-02-21T02:21:32.707Z,96817.75
2023-02-21T02:23:58.998Z,96818.94
2023-02-21T02:26:25.295Z,96808.38
2023-02-21T02:28:51.585Z,96811.16
2023-02-21T02:31:18.309Z,96818.59
2023-02-21T02:33:44.821Z,96814.69
2023-02-21T02:36:11.105Z,96812.31
2023-02-21T02:38:37.404Z,96804.72
2023-02-21T02:41:03.682Z,96802.81
2023-02-21T02:43:29.956Z,96803.69
2023-02-21T02:45:56.246Z,96803.66
2023-02-21T02:48:22.537Z,96798.09
2023-02-21T02:50:48.833Z,96802.84
2023-02-21T02:53:15.121Z,96795.28
2023-02-21T02:55:41.396Z,96794.09
2023-02-21T02:58:07.675Z,96803.28
2023-02-21T03:00:33.966Z,96809.22
2023-02-21T03:03:00.235Z,96792.94
2023-02-21T03:05:26.522Z,96796.88
2023-02-21T03:07:52.842Z,96796.44
2023-02-21T03:10:19.120Z,96800.50
2023-02-21T03:12:45.449Z,96798.84
2023-02-21T03:15:11.824Z,96798.03
2023-02-21T03:17:38.111Z,96798.47
2023-02-21T03:20:04.414Z,96796.09
2023-02-21T03:22:30.738Z,96802.88
2023-02-21T03:24:57.033Z,96804.47
2023-02-21T03:27:23.313Z,96800.09
2023-02-21T03:29:49.610Z,96802.88
2023-02-21T03:32:15.934Z,96797.75
2023-02-21T03:34:42.217Z,96797.75
2023-02-21T03:37:08.510Z,96798.94
2023-02-21T03:39:34.797Z,96799.72
2023-02-21T03:42:01.083Z,96799.72
2023-02-21T03:44:27.385Z,96798.13
2023-02-21T03:46:53.695Z,96798.16
2023-02-21T03:49:20.024Z,96794.16
2023-02-21T03:51:46.344Z,96801.31
2023-02-21T03:54:12.638Z,96794.19
2023-02-21T03:56:42.261Z,96792.22
2023-02-21T03:59:08.856Z,96799.72
2023-02-21T04:01:35.147Z,96788.66
2023-02-21T04:04:01.433Z,96787.84
2023-02-21T04:06:27.730Z,96795.75
2023-02-21T04:08:54.020Z,96798.91
2023-02-21T04:11:20.303Z,96794.97
2023-02-21T04:13:46.601Z,96795.75
2023-02-21T04:16:12.909Z,96790.25
2023-02-21T04:18:39.251Z,96800.91
2023-02-21T04:21:05.603Z,96799.72
2023-02-21T04:23:31.901Z,96806.03
2023-02-21T04:25:58.212Z,96808.41
2023-02-21T04:28:24.535Z,96806.06
2023-02-21T04:30:50.820Z,96809.63
2023-02-21T04:33:17.115Z,96814.78
2023-02-21T04:35:43.420Z,96807.59
2023-02-21T04:38:09.707Z,96807.63
2023-02-21T04:40:36.002Z,96807.63
2023-02-21T04:43:05.049Z,96815.91
2023-02-21T04:45:31.369Z,96819.06
2023-02-21T04:47:57.743Z,96817.06
2023-02-21T04:50:24.056Z,96812.28
2023-02-21T04:52:50.339Z,96806.78
2023-02-21T04:55:16.635Z,96807.56
2023-02-21T04:57:42.938Z,96810.69
2023-02-21T05:00:09.218Z,96807.13
2023-02-21T05:02:35.502Z,96814.59
2023-02-21T05:05:01.827Z,96801.09
2023-02-21T05:07:28.111Z,96807.16
2023-02-21T05:09:54.398Z,96812.25
2023-02-21T05:12:20.690Z,96804.94
2023-02-21T05:14:46.992Z,96804.78
2023-02-21T05:17:13.281Z,96796.94
2023-02-21T05:19:39.564Z,96799.72
2023-02-21T05:22:05.847Z,96793.00
2023-02-21T05:24:32.134Z,96792.59
2023-02-21T05:26:58.484Z,96793.41
2023-02-21T05:29:24.782Z,96794.97
2023-02-21T05:31:51.101Z,96787.84
2023-02-21T05:34:17.416Z,96794.16
2023-02-21T05:36:43.706Z,96796.13
2023-02-21T05:39:10.057Z,96786.25
2023-02-21T05:41:36.388Z,96789.38
2023-02-21T05:44:02.717Z,96793.38
2023-02-21T05:46:29.032Z,96796.53
2023-02-21T05:48:55.366Z,96801.63
2023-02-21T05:51:21.654Z,96794.97
2023-02-21T05:53:47.930Z,96794.97
2023-02-21T05:56:14.239Z,96802.91
2023-02-21T05:58:40.520Z,96795.78
2023-02-21T06:01:06.830Z,96798.91
2023-02-21T06:03:33.241Z,96796.53
2023-02-21T06:05:59.573Z,96801.69
2023-02-21T06:08:25.843Z,96796.50
2023-02-21T06:10:52.153Z,96803.66
2023-02-21T06:13:18.467Z,96803.63
2023-02-21T06:15:44.819Z,96802.50
2023-02-21T06:18:11.139Z,96796.53
2023-02-21T06:20:37.417Z,96801.28
2023-02-21T06:23:03.706Z,96801.31
2023-02-21T06:25:30.021Z,96796.50
2023-02-21T06:27:56.333Z,96800.84
2023-02-21T06:30:23.279Z,96794.00
2023-02-21T06:32:49.723Z,96799.16
2023-02-21T06:35:16.009Z,96798.78
2023-02-21T06:37:42.300Z,96799.59
2023-02-21T06:40:08.606Z,96804.31
2023-02-21T06:42:34.908Z,96804.34
2023-02-21T06:45:01.217Z,96800.31
2023-02-21T06:47:27.523Z,96809.31
2023-02-21T06:49:53.811Z,96806.72
2023-02-21T06:52:20.094Z,96801.06
2023-02-21T06:54:46.405Z,96811.34
2023-02-21T06:57:12.708Z,96804.28
2023-02-21T06:59:38.993Z,96801.53
2023-02-21T07:02:05.301Z,96819.38
2023-02-21T07:04:31.625Z,96817.84
2023-02-21T07:06:57.927Z,96816.53
2023-02-21T07:09:24.228Z,96813.88
2023-02-21T07:11:50.507Z,96823.41
2023-02-21T07:14:16.800Z,96813.94
2023-02-21T07:16:43.230Z,96811.56
2023-02-21T07:19:09.513Z,96815.94
2023-02-21T07:21:36.360Z,96807.63
2023-02-21T07:24:02.631Z,96813.53
2023-02-21T07:26:28.943Z,96806.00
2023-02-21T07:28:55.292Z,96819.09
2023-02-21T07:31:22.049Z,96804.47
2023-02-21T07:33:48.554Z,96813.97
2023-02-21T07:36:14.863Z,96808.44
2023-02-21T07:38:41.198Z,96809.22
2023-02-21T07:41:07.484Z,96808.78
2023-02-21T07:43:33.786Z,96813.19
2023-02-21T07:46:00.262Z,96818.25
2023-02-21T07:48:26.728Z,96810.34
2023-02-21T07:50:53.011Z,96815.16
2023-02-21T07:53:19.320Z,96812.38
2023-02-21T07:55:45.602Z,96806.00
2023-02-21T07:58:11.905Z,96804.06
2023-02-21T08:00:40.474Z,96805.28
2023-02-21T08:03:06.994Z,96806.47
2023-02-21T08:05:33.283Z,96809.22
2023-02-21T08:07:59.633Z,96810.00
2023-02-21T08:10:26.005Z,96815.53
2023-02-21T08:12:52.321Z,96806.78
2023-02-21T08:15:18.632Z,96803.91
2023-02-21T08:17:44.917Z,96800.31
2023-02-21T08:20:11.201Z,96797.22
2023-02-21T08:22:37.498Z,96797.72
2023-02-21T08:25:03.789Z,96809.38
2023-02-21T08:27:30.082Z,96797.88
2023-02-21T08:29:56.601Z,96801.88
2023-02-21T08:32:23.021Z,96804.56
2023-02-21T08:34:49.334Z,96809.69
2023-02-21T08:37:15.632Z,96814.13
2023-02-21T08:39:41.938Z,96806.41
2023-02-21T08:42:08.249Z,96810.19
2023-02-21T08:44:34.596Z,96813.72
2023-02-21T08:47:00.951Z,96809.34
2023-02-21T08:49:27.269Z,96811.25
2023-02-21T08:51:53.570Z,96808.78
2023-02-21T08:54:19.851Z,96798.28
2023-02-21T08:56:46.147Z,96804.34
2023-02-21T08:59:12.495Z,96803.00
2023-02-21T09:01:38.803Z,96800.94
2023-02-21T09:04:05.088Z,96801.56
2023-02-21T09:06:31.383Z,96791.66
2023-02-21T09:08:57.686Z,96795.00
2023-02-21T09:11:23.980Z,96794.06
2023-02-21T09:13:50.279Z,96785.69
2023-02-21T09:16:16.599Z,96780.59
2023-02-21T09:18:43.057Z,96778.72
2023-02-21T09:21:09.362Z,96773.03
2023-02-21T09:23:35.652Z,96775.78
2023-02-21T09:26:01.948Z,96772.78
2023-02-21T09:28:28.264Z,96771.19
2023-02-21T09:30:54.544Z,96778.63
2023-02-21T09:33:20.826Z,96775.47
2023-02-21T09:35:47.114Z,96766.34
2023-02-21T09:38:13.411Z,96765.53
2023-02-21T09:40:39.728Z,96764.88
2023-02-21T09:43:06.045Z,96763.19
2023-02-21T09:45:32.355Z,96760.63
2023-02-21T09:47:58.664Z,96744.34
2023-02-21T09:50:24.997Z,96754.59
2023-02-21T09:52:51.288Z,96742.25
2023-02-21T09:55:17.584Z,96750.31
2023-02-21T09:57:43.897Z,96744.84
2023-02-21T10:00:10.195Z,96738.81
2023-02-21T10:02:36.493Z,96733.88
2023-02-21T10:05:02.862Z,96732.28
2023-02-21T10:07:29.186Z,96727.50
2023-02-21T10:09:55.467Z,96726.16
2023-02-21T10:12:21.780Z,96727.44
2023-02-21T10:14:48.068Z,96717.91
2023-02-21T10:17:14.369Z,96719.88
2023-02-21T10:19:40.683Z,96713.41
2023-02-21T10:22:06.996Z,96704.09
2023-02-21T10:24:33.287Z,96706.19
2023-02-21T10:26:59.601Z,96704.81
2023-02-21T10:29:25.933Z,96691.09
2023-02-21T10:31:52.432Z,96690.38
2023-02-21T10:34:18.750Z,96693.09
2023-02-21T10:36:45.045Z,96689.72
2023-02-21T10:39:11.345Z,96680.34
2023-02-21T10:41:37.847Z,96679.03
2023-02-21T10:44:04.233Z,96682.78
2023-02-21T10:46:30.519Z,96682.72
2023-02-21T10:48:56.821Z,96682.16
2023-02-21T10:51:23.117Z,96681.28
2023-02-21T10:53:49.410Z,96671.25
2023-02-21T10:56:16.168Z,96666.09
2023-02-21T10:58:42.676Z,96658.00
2023-02-21T11:01:09.020Z,96644.25
2023-02-21T11:03:35.346Z,96642.84
2023-02-21T11:06:01.654Z,96642.84
2023-02-21T11:08:27.949Z,96634.88
2023-02-21T11:10:54.254Z,96634.09
2023-02-21T11:13:20.569Z,96635.00
2023-02-21T11:15:46.923Z,96628.53
2023-02-21T11:18:13.324Z,96617.94
2023-02-21T11:20:39.623Z,96615.84
2023-02-21T11:23:05.921Z,96607.25
2023-02-21T11:25:32.242Z,96606.47
2023-02-21T11:27:58.540Z,96607.25
2023-02-21T11:30:24.876Z,96599.25
2023-02-21T11:32:56.911Z,96588.84
2023-02-21T11:35:23.405Z,96588.53
2023-02-21T11:37:49.687Z,96580.78
2023-02-21T11:40:16.032Z,96581.44
2023-02-21T11:42:42.352Z,96578.31
2023-02-21T11:45:08.676Z,96569.00
2023-02-21T11:47:34.982Z,96570.03
2023-02-21T11:50:01.281Z,96556.00
2023-02-21T11:52:27.566Z,96556.44
2023-02-21T11:54:53.876Z,96543.69
2023-02-21T11:57:20.169Z,96543.09
2023-02-21T11:59:46.471Z,96538.16
2023-02-21T12:02:12.848Z,96537.53
2023-02-21T12:04:39.180Z,96532.03
2023-02-21T12:07:05.474Z,96529.00
2023-02-21T12:09:31.785Z,96529.84
2023-02-21T12:11:58.966Z,96532.97
2023-02-21T12:14:26.368Z,96518.91
2023-02-21T12:16:52.681Z,96521.84
2023-02-21T12:19:18.995Z,96517.50
2023-02-21T12:21:45.305Z,96510.81
2023-02-21T12:24:11.616Z,96508.59
2023-02-21T12:26:37.953Z,96494.28
2023-02-21T12:29:04.276Z,96495.06
2023-02-21T12:31:30.654Z,96489.72
2023-02-21T12:33:56.979Z,96484.03
2023-02-21T12:36:23.282Z,96488.78
2023-02-21T12:38:49.627Z,96479.16
2023-02-21T12:41:16.200Z,96477.56
2023-02-21T12:43:42.663Z,96467.28
2023-02-21T12:46:08.998Z,96466.81
2023-02-21T12:48:35.309Z,96462.34
2023-02-21T12:51:01.602Z,96467.13
2023-02-21T12:53:27.915Z,96454.44
2023-02-21T12:55:54.212Z,96455.03
2023-02-21T12:58:20.524Z,96452.13
2023-02-21T13:00:46.840Z,96451.19
2023-02-21T13:03:13.167Z,96444.66
2023-02-21T13:05:39.475Z,96434.69
2023-02-21T13:08:05.821Z,96436.72
2023-02-21T13:10:32.112Z,96430.75
2023-02-21T13:12:58.402Z,96419.38
2023-02-21T13:15:24.714Z,96414.69
2023-02-21T13:17:51.000Z,96414.72
2023-02-21T13:20:17.303Z,96407.28
2023-02-21T13:22:43.609Z,96409.66
2023-02-21T13:25:09.905Z,96405.03
2023-02-21T13:27:36.189Z,96408.44
2023-02-21T13:30:02.504Z,96391.97
2023-02-21T13:32:28.799Z,96398.94
2023-02-21T13:34:55.082Z,96409.75
2023-02-21T13:37:21.413Z,96397.41
2023-02-21T13:39:47.706Z,96394.84
2023-02-21T13:42:14.094Z,96394.16
2023-02-21T13:44:40.416Z,96386.78
2023-02-21T13:47:06.702Z,96383.50
2023-02-21T13:49:32.991Z,96383.91
2023-02-21T13:51:59.291Z,96374.38
2023-02-21T13:54:25.574Z,96363.69
2023-02-21T13:56:52.146Z,96374.94
2023-02-21T13:59:18.538Z,96374.25
2023-02-21T14:01:44.836Z,96358.44
2023-02-21T14:04:11.161Z,96368.75
2023-02-21T14:06:37.542Z,96355.72
2023-02-21T14:09:03.857Z,96360.44
2023-02-21T14:11:30.154Z,96346.75
2023-02-21T14:13:56.493Z,96350.66
2023-02-21T14:16:22.840Z,96355.66
2023-02-21T14:18:49.143Z,96360.81
2023-02-21T14:21:15.760Z,96357.22
2023-02-21T14:23:42.219Z,96355.59
2023-02-21T14:26:08.511Z,96344.59
2023-02-21T14:28:34.825Z,96347.50
2023-02-21T14:31:01.128Z,96342.16
2023-02-21T14:33:27.407Z,96338.34
2023-02-21T14:35:53.713Z,96337.84
2023-02-21T14:38:19.999Z,96334.59
2023-02-21T14:40:46.281Z,96333.84
2023-02-21T14:43:12.598Z,96321.13
2023-02-21T14:45:38.922Z,96320.84
2023-02-21T14:48:05.239Z,96322.94
2023-02-21T14:50:31.605Z,96314.88
2023-02-21T14:52:57.893Z,96319.47
2023-02-21T14:55:24.445Z,96317.59
2023-02-21T14:57:50.785Z,96320.50
2023-02-21T15:00:17.069Z,96312.81
2023-02-21T15:02:43.366Z,96316.16
2023-02-21T15:05:09.696Z,96309.06
2023-02-21T15:07:36.001Z,96306.31
2023-02-21T15:10:02.303Z,96309.94
2023-02-21T15:12:28.629Z,96311.94
2023-02-21T15:14:54.905Z,96307.16
2023-02-21T15:17:21.271Z,96309.13
2023-02-21T15:19:47.622Z,96305.50
2023-02-21T15:22:13.919Z,96308.41
2023-02-21T15:24:40.335Z,96300.75
2023-02-21T15:27:06.653Z,96304.34
2023-02-21T15:29:32.948Z,96306.72
2023-02-21T15:31:59.279Z,96298.94
2023-02-21T15:34:25.607Z,96299.13
2023-02-21T15:36:51.901Z,96295.63
2023-02-21T15:39:18.191Z,96284.56
2023-02-21T15:41:44.492Z,96282.28
2023-02-21T15:44:10.797Z,96289.78
2023-02-21T15:46:37.071Z,96286.56
2023-02-21T15:49:03.381Z,96280.38
2023-02-21T15:51:29.687Z,96277.81
2023-02-21T15:53:56.005Z,96273.88
2023-02-21T15:56:22.311Z,96275.44
2023-02-21T15:58:48.609Z,96269.78
2023-02-21T16:01:15.330Z,96273.81
2023-02-21T16:03:41.871Z,96270.09
2023-02-21T16:06:08.187Z,96260.56
2023-02-21T16:08:34.479Z,96252.19
2023-02-21T16:11:00.814Z,96259.03
2023-02-21T16:13:27.135Z,96254.41
2023-02-21T16:15:53.451Z,96253.69
2023-02-21T16:18:19.760Z,96247.66
2023-02-21T16:20:46.057Z,96251.34
2023-02-21T16:23:12.358Z,96251.09
2023-02-21T16:25:38.685Z,96251.47
2023-02-21T16:28:04.989Z,96247.25
2023-02-21T16:30:31.322Z,96250.88
2023-02-21T16:32:57.664Z,96249.41
2023-02-21T16:35:23.964Z,96255.56
2023-02-21T16:37:50.256Z,96255.97
2023-02-21T16:40:16.581Z,96256.56
2023-02-21T16:42:42.881Z,96269.56
2023-02-21T16:45:09.181Z,96258.44
2023-02-21T16:47:35.487Z,96262.94
2023-02-21T16:50:01.794Z,96260.25
2023-02-21T16:52:29.041Z,96262.16
2023-02-21T16:54:55.379Z,96261.50
2023-02-21T16:57:21.665Z,96264.06
2023-02-21T16:59:47.981Z,96268.66
2023-02-21T17:02:14.304Z,96259.69
2023-02-21T17:04:40.600Z,96257.91
2023-02-21T17:07:06.902Z,96265.06
2023-02-21T17:09:33.205Z,96261.38
2023-02-21T17:11:59.500Z,96264.59
2023-02-21T17:14:25.786Z,96264.84
2023-02-21T17:16:52.076Z,96266.19
2023-02-21T17:19:18.365Z,96258.38
2023-02-21T17:21:44.645Z,96259.13
2023-02-21T17:24:10.953Z,96260.09
2023-02-21T17:26:37.226Z,96258.19
2023-02-21T17:29:03.525Z,96263.53
2023-02-21T17:31:29.878Z,96265.28
2023-02-21T17:33:56.182Z,96259.84
2023-02-21T17:36:22.453Z,96260.94
2023-02-21T17:38:48.756Z,96264.53
2023-02-21T17:41:15.237Z,96262.56
2023-02-21T17:43:41.735Z,96271.13
2023-02-21T17:46:08.048Z,96265.09
2023-02-21T17:48:34.348Z,96265.75
2023-02-21T17:51:00.687Z,96267.78
2023-02-21T17:53:27.012Z,96268.16
2023-02-21T17:55:53.304Z,96267.84
2023-02-21T17:58:19.591Z,96271.47
2023-02-21T18:00:45.900Z,96279.91
2023-02-21T18:03:12.189Z,96274.38
2023-02-21T18:05:38.473Z,96274.69
2023-02-21T18:08:04.764Z,96276.72
2023-02-21T18:10:31.049Z,96268.94
2023-02-21T18:12:57.334Z,96271.13
2023-02-21T18:15:23.641Z,96276.53
2023-02-21T18:17:49.931Z,96273.25
2023-02-21T18:20:16.230Z,96282.22
2023-02-21T18:22:42.556Z,96278.53
2023-02-21T18:25:08.859Z,96280.47
2023-02-21T18:27:35.138Z,96282.25
2023-02-21T18:30:01.441Z,96276.72
2023-02-21T18:32:27.782Z,96277.13
2023-02-21T18:34:54.085Z,96277.34
2023-02-21T18:37:20.446Z,96282.66
2023-02-21T18:39:46.735Z,96282.47
2023-02-21T18:42:13.027Z,96287.63
2023-02-21T18:44:39.324Z,96280.81
2023-02-21T18:47:05.642Z,96281.78
2023-02-21T18:49:31.972Z,96280.66
2023-02-21T18:51:58.269Z,96277.66
2023-02-21T18:54:24.546Z,96278.03
2023-02-21T18:56:50.827Z,96280.56
2023-02-21T18:59:17.127Z,96270.22
2023-02-21T19:01:43.414Z,96272.59
2023-02-21T19:04:09.789Z,96269.53
2023-02-21T19:06:36.145Z,96268.09
2023-02-21T19:09:02.422Z,96273.75
2023-02-21T19:11:28.691Z,96269.03
2023-02-21T19:13:54.990Z,96273.19
2023-02-21T19:16:21.333Z,96269.59
2023-02-21T19:18:47.637Z,96277.19
2023-02-21T19:21:14.336Z,96270.63
2023-02-21T19:23:40.843Z,96268.88
2023-02-21T19:26:07.123Z,96265.47
2023-02-21T19:28:33.528Z,96269.78
2023-02-21T19:30:59.805Z,96274.38
2023-02-21T19:33:26.086Z,96282.41
2023-02-21T19:35:52.385Z,96278.56
2023-02-21T19:38:18.735Z,96280.81
2023-02-21T19:40:45.021Z,96284.50
2023-02-21T19:43:11.370Z,96281.53
2023-02-21T19:45:37.679Z,96282.56
2023-02-21T19:48:03.982Z,96276.66
2023-02-21T19:50:30.295Z,96282.28
2023-02-21T19:52:56.608Z,96287.13
2023-02-21T19:55:22.897Z,96289.16
2023-02-21T19:57:49.209Z,96280.41
2023-02-21T20:00:15.517Z,96280.22
2023-02-21T20:02:41.809Z,96286.94
2023-02-21T20:05:08.122Z,96285.72
2023-02-21T20:07:34.410Z,96285.00
2023-02-21T20:10:00.721Z,96274.22
2023-02-21T20:12:27.021Z,96280.91
2023-02-21T20:14:53.319Z,96288.94
2023-02-21T20:17:19.616Z,96290.59
2023-02-21T20:19:45.912Z,96288.16
2023-02-21T20:22:12.272Z,96287.69
2023-02-21T20:24:38.554Z,96288.84
2023-02-21T20:27:04.860Z,96289.69
2023-02-21T20:29:31.147Z,96289.25
2023-02-21T20:31:57.457Z,96286.75
2023-02-21T20:34:23.777Z,96286.56
2023-02-21T20:36:50.065Z,96280.13
2023-02-21T20:39:16.360Z,96289.47
2023-02-21T20:41:42.666Z,96285.78
2023-02-21T20:44:08.945Z,96290.50
2023-02-21T20:46:35.212Z,96294.47
2023-02-21T20:49:01.535Z,96288.00
2023-02-21T20:51:27.823Z,96291.88
2023-02-21T20:53:54.091Z,96282.25
2023-02-21T20:56:20.420Z,96286.09
2023-02-21T20:58:46.712Z,96285.66
2023-02-21T21:01:13.018Z,96283.19
2023-02-21T21:03:39.335Z,96278.81
2023-02-21T21:06:05.614Z,96276.19
2023-02-21T21:08:31.897Z,96270.72
2023-02-21T21:10:58.221Z,96277.13
2023-02-21T21:13:24.541Z,96276.47
2023-02-21T21:15:50.834Z,96275.03
2023-02-21T21:18:17.151Z,96274.41
2023-02-21T21:20:43.435Z,96266.63
2023-02-21T21:23:09.714Z,96268.59
2023-02-21T21:25:36.043Z,96270.34
2023-02-21T21:28:02.343Z,96265.44
2023-02-21T21:30:28.893Z,96273.09
2023-02-21T21:32:55.249Z,96271.81
2023-02-21T21:35:21.550Z,96262.75
2023-02-21T21:37:47.836Z,96262.25
2023-02-21T21:40:14.145Z,96260.44
2023-02-21T21:42:40.442Z,96263.41
2023-02-21T21:45:06.730Z,96258.25
2023-02-21T21:47:33.038Z,96261.63
2023-02-21T21:49:59.330Z,96255.59
2023-02-21T21:52:25.670Z,96258.03
2023-02-21T21:54:52.060Z,96249.94
2023-02-21T21:57:18.428Z,96261.88
2023-02-21T21:59:44.722Z,96259.41
2023-02-21T22:02:14.033Z,96260.69
2023-02-21T22:04:40.351Z,96257.63
2023-02-21T22:07:06.642Z,96256.63
2023-02-21T22:09:32.928Z,96265.06
2023-02-21T22:11:59.206Z,96259.59
2023-02-21T22:14:25.487Z,96250.81
2023-02-21T22:16:51.794Z,96259.19
2023-02-21T22:19:18.079Z,96253.34
2023-02-21T22:21:44.358Z,96256.09
2023-02-21T22:24:10.659Z,96255.59
2023-02-21T22:26:36.941Z,96254.28
2023-02-21T22:29:03.251Z,96254.75
2023-02-21T22:31:33.660Z,96257.06
2023-02-21T22:33:59.978Z,96248.31
2023-02-21T22:36:26.269Z,96248.59
2023-02-21T22:38:52.573Z,96250.72
2023-02-21T22:41:18.852Z,96248.56
2023-02-21T22:43:45.132Z,96251.19
2023-02-21T22:46:11.499Z,96249.00
2023-02-21T22:48:37.805Z,96249.22
2023-02-21T22:51:04.084Z,96248.81
2023-02-21T22:53:30.382Z,96257.50
2023-02-21T22:55:56.665Z,96246.38
2023-02-21T22:58:22.966Z,96249.75
2023-02-21T23:00:49.318Z,96244.84
2023-02-21T23:03:18.381Z,96252.19
2023-02-21T23:05:44.684Z,96244.16
2023-02-21T23:08:11.002Z,96245.28
2023-02-21T23:10:37.288Z,96246.38
2023-02-21T23:13:03.585Z,96242.34
2023-02-21T23:15:29.902Z,96236.97
2023-02-21T23:17:56.193Z,96232.44
2023-02-21T23:20:22.491Z,96237.22
2023-02-21T23:22:48.786Z,96236.56
2023-02-21T23:25:15.074Z,96233.91
2023-02-21T23:27:41.368Z,96231.53
2023-02-21T23:30:07.698Z,96234.44
2023-02-21T23:32:34.011Z,96240.13
2023-02-21T23:35:02.059Z,96237.34
2023-02-21T23:37:28.362Z,96230.56
2023-02-21T23:39:54.640Z,96233.00
2023-02-21T23:42:20.930Z,96232.06
2023-02-21T23:44:47.231Z,96236.41
2023-02-21T23:47:13.501Z,96235.94
2023-02-21T23:49:39.789Z,96241.47
2023-02-21T23:52:06.079Z,96242.28
2023-02-21T23:54:32.352Z,96248.00
2023-02-21T23:56:58.634Z,96238.09
2023-02-21T23:59:24.931Z,96237.94
